createdAt,value
2022-10-11T00:00:40.454Z,100304.72
2022-10-11T00:01:27.307Z,100313.62
2022-10-11T00:02:14.221Z,100311.94
2022-10-11T00:03:01.158Z,100312.81
2022-10-11T00:03:47.970Z,100313.12
2022-10-11T00:04:34.840Z,100315.50
2022-10-11T00:05:21.600Z,100310.41
2022-10-11T00:06:09.595Z,100316.34
2022-10-11T00:06:56.554Z,100310.44
2022-10-11T00:07:43.472Z,100299.31
2022-10-11T00:08:31.202Z,100305.37
2022-10-11T00:09:17.922Z,100301.84
2022-10-11T00:10:06.237Z,100303.50
2022-10-11T00:10:58.319Z,100304.53
2022-10-11T00:11:45.621Z,100300.66
2022-10-11T00:12:32.883Z,100303.03
2022-10-11T00:13:19.671Z,100297.31
2022-10-11T00:14:06.872Z,100299.81
2022-10-11T00:14:53.643Z,100294.78
2022-10-11T00:15:41.181Z,100292.91
2022-10-11T00:16:28.040Z,100296.97
2022-10-11T00:17:14.956Z,100303.19
2022-10-11T00:18:05.296Z,100308.59
2022-10-11T00:18:52.202Z,100301.84
2022-10-11T00:19:38.941Z,100302.88
2022-10-11T00:20:26.721Z,100302.88
2022-10-11T00:21:14.742Z,100297.47
2022-10-11T00:22:01.722Z,100299.31
2022-10-11T00:22:49.621Z,100290.75
2022-10-11T00:23:37.231Z,100289.88
2022-10-11T00:24:24.061Z,100295.47
2022-10-11T00:25:12.191Z,100293.75
2022-10-11T00:26:03.696Z,100287.00
2022-10-11T00:26:50.810Z,100299.66
2022-10-11T00:27:38.131Z,100295.94
2022-10-11T00:28:25.159Z,100293.91
2022-10-11T00:29:12.948Z,100293.44
2022-10-11T00:29:59.727Z,100295.44
2022-10-11T00:30:46.543Z,100300.19
2022-10-11T00:31:35.691Z,100301.34
2022-10-11T00:32:23.181Z,100299.81
2022-10-11T00:33:09.942Z,100299.31
2022-10-11T00:33:56.840Z,100298.63
2022-10-11T00:34:43.586Z,100305.22
2022-10-11T00:35:30.425Z,100304.87
2022-10-11T00:36:17.808Z,100299.00
2022-10-11T00:37:04.577Z,100296.62
2022-10-11T00:37:51.390Z,100300.66
2022-10-11T00:38:38.163Z,100298.63
2022-10-11T00:39:25.031Z,100294.59
2022-10-11T00:40:15.921Z,100295.44
2022-10-11T00:41:02.743Z,100290.38
2022-10-11T00:41:49.701Z,100289.19
2022-10-11T00:42:36.652Z,100287.34
2022-10-11T00:43:26.424Z,100288.19
2022-10-11T00:44:19.184Z,100289.88
2022-10-11T00:45:27.730Z,100288.19
2022-10-11T00:46:17.481Z,100289.19
2022-10-11T00:47:08.161Z,100290.38
2022-10-11T00:47:55.311Z,100290.22
2022-10-11T00:48:55.742Z,100284.31
2022-10-11T00:49:43.140Z,100282.97
2022-10-11T00:50:33.330Z,100289.34
2022-10-11T00:51:28.941Z,100287.69
2022-10-11T00:52:23.601Z,100289.19
2022-10-11T00:53:11.640Z,100285.47
2022-10-11T00:53:59.861Z,100290.88
2022-10-11T00:54:48.341Z,100287.50
2022-10-11T00:55:39.401Z,100284.63
2022-10-11T00:56:33.480Z,100289.34
2022-10-11T00:57:23.150Z,100289.34
2022-10-11T00:58:11.210Z,100285.81
2022-10-11T00:58:58.591Z,100283.59
2022-10-11T00:59:49.161Z,100288.34
2022-10-11T01:00:35.801Z,100288.34
2022-10-11T01:01:22.707Z,100279.25
2022-10-11T01:02:10.433Z,100286.31
2022-10-11T01:02:57.365Z,100286.31
2022-10-11T01:03:44.539Z,100285.66
2022-10-11T01:04:31.486Z,100294.59
2022-10-11T01:05:29.146Z,100287.69
2022-10-11T01:06:16.332Z,100286.50
2022-10-11T01:07:03.541Z,100293.91
2022-10-11T01:07:51.132Z,100286.81
2022-10-11T01:08:39.001Z,100285.66
2022-10-11T01:09:26.842Z,100290.38
2022-10-11T01:10:14.060Z,100290.38
2022-10-11T01:11:01.034Z,100284.47
2022-10-11T01:11:48.420Z,100279.59
2022-10-11T01:12:35.720Z,100283.78
2022-10-11T01:13:56.323Z,100292.41
2022-10-11T01:14:53.271Z,100284.63
2022-10-11T01:15:51.265Z,100285.81
2022-10-11T01:16:47.020Z,100290.56
2022-10-11T01:17:51.832Z,100287.84
2022-10-11T01:18:44.491Z,100291.56
2022-10-11T01:20:00.332Z,100288.19
2022-10-11T01:21:02.233Z,100284.81
2022-10-11T01:21:58.061Z,100284.63
2022-10-11T01:23:29.952Z,100283.81
2022-10-11T01:24:22.722Z,100285.00
2022-10-11T01:25:24.767Z,100281.25
2022-10-11T01:26:20.622Z,100288.69
2022-10-11T01:27:26.203Z,100289.34
2022-10-11T01:28:37.460Z,100284.31
2022-10-11T01:29:36.513Z,100287.00
2022-10-11T01:30:32.361Z,100290.38
2022-10-11T01:31:26.845Z,100279.41
2022-10-11T01:32:30.761Z,100290.56
2022-10-11T01:33:37.951Z,100283.28
2022-10-11T01:34:40.943Z,100287.34
2022-10-11T01:35:36.692Z,100281.94
2022-10-11T01:37:05.278Z,100286.34
2022-10-11T01:37:58.061Z,100281.94
2022-10-11T01:38:49.721Z,100283.12
2022-10-11T01:40:16.360Z,100276.91
2022-10-11T01:41:10.462Z,100274.00
2022-10-11T01:42:00.549Z,100276.22
2022-10-11T01:42:47.821Z,100278.09
2022-10-11T01:43:35.791Z,100277.22
2022-10-11T01:44:25.052Z,100282.47
2022-10-11T01:45:15.900Z,100278.56
2022-10-11T01:46:03.798Z,100283.28
2022-10-11T01:46:52.302Z,100282.28
2022-10-11T01:47:39.310Z,100283.28
2022-10-11T01:48:26.161Z,100276.38
2022-10-11T01:49:12.960Z,100279.44
2022-10-11T01:50:01.460Z,100275.56
2022-10-11T01:50:50.941Z,100272.50
2022-10-11T01:51:46.482Z,100277.22
2022-10-11T01:52:36.321Z,100275.88
2022-10-11T01:53:35.271Z,100271.31
2022-10-11T01:54:56.946Z,100267.78
2022-10-11T01:55:58.281Z,100267.09
2022-10-11T01:57:24.074Z,100269.47
2022-10-11T01:58:15.482Z,100269.47
2022-10-11T01:59:15.551Z,100272.19
2022-10-11T02:00:14.511Z,100266.78
2022-10-11T02:01:31.240Z,100271.66
2022-10-11T02:02:20.971Z,100269.31
2022-10-11T02:03:27.720Z,100265.09
2022-10-11T02:04:36.352Z,100266.78
2022-10-11T02:05:44.331Z,100273.84
2022-10-11T02:06:52.033Z,100272.84
2022-10-11T02:07:47.922Z,100275.38
2022-10-11T02:08:37.964Z,100277.91
2022-10-11T02:09:26.563Z,100278.75
2022-10-11T02:10:19.526Z,100277.06
2022-10-11T02:11:29.534Z,100279.75
2022-10-11T02:12:23.962Z,100276.75
2022-10-11T02:13:23.712Z,100278.25
2022-10-11T02:14:17.136Z,100286.00
2022-10-11T02:15:08.401Z,100281.78
2022-10-11T02:15:56.041Z,100283.47
2022-10-11T02:17:01.522Z,100280.59
2022-10-11T02:17:51.801Z,100284.31
2022-10-11T02:18:42.831Z,100281.44
2022-10-11T02:19:33.511Z,100286.50
2022-10-11T02:20:22.031Z,100286.50
2022-10-11T02:21:11.331Z,100288.16
2022-10-11T02:22:03.508Z,100286.16
2022-10-11T02:22:52.022Z,100287.00
2022-10-11T02:23:45.820Z,100293.25
2022-10-11T02:24:35.001Z,100291.53
2022-10-11T02:25:27.762Z,100291.06
2022-10-11T02:26:14.990Z,100284.13
2022-10-11T02:27:03.623Z,100288.00
2022-10-11T02:27:52.371Z,100285.16
2022-10-11T02:28:42.539Z,100287.19
2022-10-11T02:29:31.481Z,100285.66
2022-10-11T02:30:18.412Z,100284.47
2022-10-11T02:31:07.104Z,100286.50
2022-10-11T02:31:54.793Z,100288.19
2022-10-11T02:32:44.570Z,100289.88
2022-10-11T02:33:39.642Z,100289.19
2022-10-11T02:34:43.735Z,100290.03
2022-10-11T02:35:34.363Z,100286.66
2022-10-11T02:36:31.461Z,100288.53
2022-10-11T02:37:33.291Z,100295.78
2022-10-11T02:38:23.920Z,100289.19
2022-10-11T02:39:18.801Z,100286.50
2022-10-11T02:40:18.541Z,100297.47
2022-10-11T02:41:15.452Z,100290.03
2022-10-11T02:42:05.620Z,100295.28
2022-10-11T02:43:00.001Z,100297.44
2022-10-11T02:44:00.279Z,100294.44
2022-10-11T02:44:53.610Z,100290.56
2022-10-11T02:46:17.740Z,100295.09
2022-10-11T02:47:04.890Z,100294.59
2022-10-11T02:47:51.803Z,100293.09
2022-10-11T02:48:39.925Z,100295.44
2022-10-11T02:49:28.373Z,100299.16
2022-10-11T02:50:15.613Z,100303.88
2022-10-11T02:51:03.611Z,100299.81
2022-10-11T02:51:50.419Z,100297.97
2022-10-11T02:52:37.200Z,100297.28
2022-10-11T02:53:25.801Z,100296.25
2022-10-11T02:54:12.669Z,100300.50
2022-10-11T02:54:59.570Z,100303.00
2022-10-11T02:55:47.069Z,100297.63
2022-10-11T02:56:33.921Z,100301.84
2022-10-11T02:57:20.691Z,100302.53
2022-10-11T02:58:07.469Z,100302.69
2022-10-11T02:58:54.239Z,100298.63
2022-10-11T02:59:41.017Z,100302.84
2022-10-11T03:00:28.121Z,100302.69
2022-10-11T03:01:15.483Z,100298.13
2022-10-11T03:02:02.524Z,100302.00
2022-10-11T03:02:49.464Z,100304.03
2022-10-11T03:03:36.269Z,100303.38
2022-10-11T03:04:23.021Z,100302.34
2022-10-11T03:05:10.004Z,100294.91
2022-10-11T03:06:01.488Z,100298.13
2022-10-11T03:06:48.581Z,100297.97
2022-10-11T03:07:35.508Z,100295.44
2022-10-11T03:08:22.261Z,100298.81
2022-10-11T03:09:09.022Z,100293.25
2022-10-11T03:09:55.801Z,100293.91
2022-10-11T03:10:42.901Z,100298.63
2022-10-11T03:11:29.770Z,100298.47
2022-10-11T03:12:16.572Z,100295.59
2022-10-11T03:13:03.563Z,100296.25
2022-10-11T03:13:51.643Z,100298.28
2022-10-11T03:14:38.442Z,100294.59
2022-10-11T03:15:25.331Z,100297.44
2022-10-11T03:16:12.371Z,100289.34
2022-10-11T03:17:17.179Z,100301.19
2022-10-11T03:18:07.499Z,100301.84
2022-10-11T03:18:54.320Z,100299.16
2022-10-11T03:19:41.221Z,100301.66
2022-10-11T03:20:28.040Z,100303.38
2022-10-11T03:21:14.930Z,100304.03
2022-10-11T03:22:01.701Z,100308.75
2022-10-11T03:22:48.602Z,100300.66
2022-10-11T03:23:35.533Z,100304.03
2022-10-11T03:24:22.454Z,100298.63
2022-10-11T03:25:09.649Z,100302.50
2022-10-11T03:25:56.580Z,100304.03
2022-10-11T03:26:43.370Z,100305.69
2022-10-11T03:27:30.152Z,100314.47
2022-10-11T03:28:16.973Z,100309.91
2022-10-11T03:29:03.838Z,100303.69
2022-10-11T03:29:50.610Z,100316.34
2022-10-11T03:30:37.409Z,100307.41
2022-10-11T03:31:24.268Z,100316.66
2022-10-11T03:32:11.032Z,100314.31
2022-10-11T03:32:57.961Z,100315.16
2022-10-11T03:33:45.103Z,100320.38
2022-10-11T03:34:31.923Z,100309.44
2022-10-11T03:35:18.900Z,100321.72
2022-10-11T03:36:06.412Z,100316.34
2022-10-11T03:36:53.512Z,100320.75
2022-10-11T03:37:40.390Z,100325.47
2022-10-11T03:38:27.139Z,100318.19
2022-10-11T03:39:13.961Z,100321.56
2022-10-11T03:40:00.771Z,100323.25
2022-10-11T03:40:48.051Z,100315.50
2022-10-11T03:41:34.911Z,100321.72
2022-10-11T03:42:21.680Z,100331.84
2022-10-11T03:43:08.661Z,100322.75
2022-10-11T03:43:55.511Z,100333.53
2022-10-11T03:44:42.341Z,100330.19
2022-10-11T03:45:29.161Z,100323.91
2022-10-11T03:46:16.042Z,100323.09
2022-10-11T03:47:02.861Z,100329.31
2022-10-11T03:47:49.692Z,100326.44
2022-10-11T03:48:36.568Z,100326.44
2022-10-11T03:49:23.771Z,100326.28
2022-10-11T03:50:10.633Z,100321.91
2022-10-11T03:50:57.410Z,100325.09
2022-10-11T03:51:44.242Z,100329.31
2022-10-11T03:52:31.030Z,100320.53
2022-10-11T03:53:17.912Z,100322.41
2022-10-11T03:54:04.729Z,100326.28
2022-10-11T03:54:51.501Z,100332.69
2022-10-11T03:55:40.417Z,100325.47
2022-10-11T03:56:27.242Z,100326.28
2022-10-11T03:57:14.312Z,100321.56
2022-10-11T03:58:01.133Z,100322.09
2022-10-11T03:58:47.921Z,100331.53
2022-10-11T03:59:34.726Z,100329.66
2022-10-11T04:00:21.581Z,100330.84
2022-10-11T04:01:09.091Z,100329.31
2022-10-11T04:01:55.976Z,100334.72
2022-10-11T04:02:42.942Z,100331.00
2022-10-11T04:03:30.123Z,100331.34
2022-10-11T04:04:16.912Z,100332.69
2022-10-11T04:05:06.111Z,100329.47
2022-10-11T04:05:52.971Z,100324.06
2022-10-11T04:06:39.771Z,100327.81
2022-10-11T04:07:26.691Z,100329.00
2022-10-11T04:08:13.608Z,100328.63
2022-10-11T04:09:00.543Z,100328.84
2022-10-11T04:09:47.341Z,100326.13
2022-10-11T04:10:34.234Z,100330.34
2022-10-11T04:11:21.350Z,100334.22
2022-10-11T04:12:08.571Z,100330.00
2022-10-11T04:12:55.450Z,100331.19
2022-10-11T04:13:42.195Z,100326.13
2022-10-11T04:14:29.012Z,100329.81
2022-10-11T04:15:16.745Z,100333.56
2022-10-11T04:16:04.054Z,100328.81
2022-10-11T04:16:51.040Z,100328.00
2022-10-11T04:17:37.871Z,100335.72
2022-10-11T04:18:24.777Z,100330.84
2022-10-11T04:19:12.160Z,100334.38
2022-10-11T04:20:01.359Z,100337.91
2022-10-11T04:21:47.271Z,100336.94
2022-10-11T04:23:05.961Z,100344.34
2022-10-11T04:24:33.518Z,100335.56
2022-10-11T04:25:35.661Z,100338.59
2022-10-11T04:26:49.690Z,100344.50
2022-10-11T04:27:40.412Z,100353.09
2022-10-11T04:28:56.950Z,100348.87
2022-10-11T04:29:43.777Z,100336.25
2022-10-11T04:30:30.882Z,100340.09
2022-10-11T04:31:17.664Z,100338.94
2022-10-11T04:32:04.560Z,100345.66
2022-10-11T04:32:51.491Z,100336.94
2022-10-11T04:33:38.252Z,100341.66
2022-10-11T04:40:54.331Z,100347.19
2022-10-11T04:43:04.821Z,100354.78
2022-10-11T04:54:59.583Z,100345.03
2022-10-11T04:55:59.032Z,100343.00
2022-10-11T04:56:45.870Z,100350.06
2022-10-11T04:57:32.683Z,100356.28
2022-10-11T04:58:19.499Z,100358.50
2022-10-11T04:59:06.330Z,100361.88
2022-10-11T04:59:53.102Z,100357.31
2022-10-11T05:00:39.881Z,100353.62
2022-10-11T05:01:48.931Z,100350.41
2022-10-11T05:02:35.716Z,100353.44
2022-10-11T05:03:22.791Z,100350.72
2022-10-11T05:04:09.562Z,100342.13
2022-10-11T05:04:56.549Z,100351.41
2022-10-11T05:05:47.962Z,100339.78
2022-10-11T05:14:03.661Z,100349.03
2022-10-11T05:14:50.481Z,100352.94
2022-10-11T05:15:37.290Z,100351.25
2022-10-11T05:16:24.228Z,100347.38
2022-10-11T05:25:47.865Z,100358.13
2022-10-11T05:26:44.540Z,100358.47
2022-10-11T05:32:00.905Z,100368.41
2022-10-11T05:32:49.581Z,100361.50
2022-10-11T05:33:37.622Z,100364.69
2022-10-11T05:34:25.790Z,100362.50
2022-10-11T05:35:13.340Z,100362.00
2022-10-11T05:36:00.861Z,100365.38
2022-10-11T05:36:48.429Z,100361.84
2022-10-11T05:37:36.072Z,100364.84
2022-10-11T05:38:24.038Z,100373.78
2022-10-11T05:39:12.516Z,100367.06
2022-10-11T05:40:00.353Z,100373.47
2022-10-11T05:40:47.242Z,100369.06
2022-10-11T05:41:34.262Z,100375.28
2022-10-11T05:42:25.571Z,100372.41
2022-10-11T05:43:13.853Z,100372.75
2022-10-11T05:44:01.152Z,100366.63
2022-10-11T05:45:57.625Z,100372.25
2022-10-11T05:46:51.121Z,100373.22
2022-10-11T05:47:38.713Z,100378.47
2022-10-11T05:48:32.061Z,100379.47
2022-10-11T05:49:19.177Z,100378.47
2022-10-11T05:50:46.141Z,100373.75
2022-10-11T05:51:33.200Z,100376.22
2022-10-11T05:52:21.719Z,100380.94
2022-10-11T05:53:08.539Z,100377.72
2022-10-11T05:53:55.301Z,100381.12
2022-10-11T05:54:42.124Z,100381.62
2022-10-11T05:55:29.002Z,100377.41
2022-10-11T05:56:21.489Z,100380.41
2022-10-11T05:57:08.237Z,100385.66
2022-10-11T05:57:56.251Z,100383.47
2022-10-11T05:58:43.042Z,100380.59
2022-10-11T05:59:29.984Z,100388.50
2022-10-11T06:00:17.025Z,100385.97
2022-10-11T06:01:03.897Z,100393.41
2022-10-11T06:01:51.005Z,100396.25
2022-10-11T06:02:37.758Z,100397.09
2022-10-11T06:03:24.856Z,100398.94
2022-10-11T06:04:12.021Z,100395.72
2022-10-11T06:04:58.744Z,100397.72
2022-10-11T06:05:45.900Z,100401.12
2022-10-11T06:06:32.591Z,100402.63
2022-10-11T06:07:19.313Z,100403.81
2022-10-11T06:08:08.836Z,100401.59
2022-10-11T06:08:55.749Z,100402.25
2022-10-11T06:09:42.642Z,100406.00
2022-10-11T06:10:29.928Z,100407.53
2022-10-11T06:11:21.382Z,100412.41
2022-10-11T06:12:08.240Z,100407.84
2022-10-11T06:12:55.256Z,100407.13
2022-10-11T06:13:42.411Z,100417.44
2022-10-11T06:14:29.641Z,100408.47
2022-10-11T06:15:16.800Z,100410.66
2022-10-11T06:16:07.786Z,100411.28
2022-10-11T06:16:54.851Z,100418.22
2022-10-11T06:17:42.031Z,100414.16
2022-10-11T06:18:29.021Z,100411.97
2022-10-11T06:19:15.901Z,100418.41
2022-10-11T06:20:04.090Z,100413.69
2022-10-11T06:20:50.994Z,100418.22
2022-10-11T06:21:37.850Z,100415.00
2022-10-11T06:22:24.783Z,100420.53
2022-10-11T06:23:12.382Z,100422.88
2022-10-11T06:24:02.091Z,100418.12
2022-10-11T06:24:49.741Z,100414.41
2022-10-11T06:25:36.600Z,100421.72
2022-10-11T06:26:23.700Z,100422.03
2022-10-11T06:27:10.715Z,100417.81
2022-10-11T06:27:57.560Z,100426.59
2022-10-11T06:28:44.563Z,100421.03
2022-10-11T06:29:31.621Z,100419.50
2022-10-11T06:30:18.551Z,100423.22
2022-10-11T06:31:06.352Z,100419.03
2022-10-11T06:31:53.281Z,100422.19
2022-10-11T06:32:40.131Z,100433.03
2022-10-11T06:33:27.470Z,100427.56
2022-10-11T06:34:14.343Z,100424.84
2022-10-11T06:35:03.805Z,100428.91
2022-10-11T06:35:57.251Z,100438.72
2022-10-11T06:36:44.132Z,100427.88
2022-10-11T06:37:30.811Z,100431.78
2022-10-11T06:38:17.742Z,100430.59
2022-10-11T06:39:05.061Z,100429.59
2022-10-11T06:39:51.860Z,100431.31
2022-10-11T06:40:38.800Z,100432.94
2022-10-11T06:41:28.029Z,100433.25
2022-10-11T06:42:14.906Z,100438.28
2022-10-11T06:43:01.803Z,100440.16
2022-10-11T06:43:51.612Z,100437.25
2022-10-11T06:44:39.538Z,100443.34
2022-10-11T06:45:26.497Z,100446.19
2022-10-11T06:46:13.391Z,100443.84
2022-10-11T06:47:00.320Z,100442.69
2022-10-11T06:47:47.101Z,100444.31
2022-10-11T06:48:34.102Z,100449.19
2022-10-11T06:49:23.432Z,100446.44
2022-10-11T06:50:10.451Z,100442.53
2022-10-11T06:51:00.890Z,100444.50
2022-10-11T06:51:48.539Z,100445.50
2022-10-11T06:52:35.374Z,100447.88
2022-10-11T06:53:22.191Z,100454.63
2022-10-11T06:54:10.123Z,100454.25
2022-10-11T06:54:57.759Z,100456.66
2022-10-11T06:55:44.680Z,100455.81
2022-10-11T06:56:32.161Z,100450.53
2022-10-11T06:57:19.117Z,100449.41
2022-10-11T06:58:05.935Z,100457.31
2022-10-11T06:58:54.011Z,100451.13
2022-10-11T06:59:40.801Z,100446.03
2022-10-11T07:00:28.161Z,100453.41
2022-10-11T07:01:20.715Z,100447.06
2022-10-11T07:02:08.901Z,100447.72
2022-10-11T07:02:55.831Z,100445.75
2022-10-11T07:03:42.941Z,100447.72
2022-10-11T07:04:29.988Z,100452.12
2022-10-11T07:05:17.811Z,100446.97
2022-10-11T07:06:07.313Z,100447.97
2022-10-11T07:06:54.511Z,100447.78
2022-10-11T07:07:41.311Z,100443.47
2022-10-11T07:08:28.645Z,100451.88
2022-10-11T07:09:15.416Z,100441.03
2022-10-11T07:10:02.241Z,100447.78
2022-10-11T07:10:49.097Z,100449.84
2022-10-11T07:11:36.414Z,100445.44
2022-10-11T07:12:23.305Z,100445.44
2022-10-11T07:13:14.831Z,100450.50
2022-10-11T07:14:08.138Z,100445.38
2022-10-11T07:14:55.072Z,100444.97
2022-10-11T07:15:41.981Z,100447.31
2022-10-11T07:16:29.216Z,100446.94
2022-10-11T07:17:16.140Z,100446.38
2022-10-11T07:18:03.091Z,100449.75
2022-10-11T07:18:58.775Z,100455.06
2022-10-11T07:19:47.524Z,100451.78
2022-10-11T07:20:34.380Z,100460.50
2022-10-11T07:21:21.216Z,100460.75
2022-10-11T07:22:08.139Z,100461.03
2022-10-11T07:22:55.187Z,100459.16
2022-10-11T07:23:42.531Z,100461.69
2022-10-11T07:24:29.696Z,100458.22
2022-10-11T07:25:16.570Z,100464.72
2022-10-11T07:26:04.050Z,100461.44
2022-10-11T07:26:51.363Z,100461.53
2022-10-11T07:27:38.582Z,100457.37
2022-10-11T07:28:26.061Z,100469.12
2022-10-11T07:29:13.251Z,100460.56
2022-10-11T07:30:00.073Z,100468.72
2022-10-11T07:30:47.201Z,100466.75
2022-10-11T07:31:34.031Z,100466.00
2022-10-11T07:32:20.998Z,100463.53
2022-10-11T07:33:07.831Z,100468.19
2022-10-11T07:33:54.783Z,100465.56
2022-10-11T07:34:41.635Z,100461.22
2022-10-11T07:35:28.561Z,100470.63
2022-10-11T07:36:16.301Z,100464.13
2022-10-11T07:37:03.191Z,100475.47
2022-10-11T07:37:50.383Z,100471.72
2022-10-11T07:38:41.092Z,100473.59
2022-10-11T07:39:28.111Z,100470.97
2022-10-11T07:40:15.190Z,100471.47
2022-10-11T07:41:06.324Z,100472.53
2022-10-11T07:41:53.199Z,100473.12
2022-10-11T07:42:40.060Z,100473.19
2022-10-11T07:43:26.966Z,100470.66
2022-10-11T07:44:14.810Z,100468.38
2022-10-11T07:45:01.675Z,100469.09
2022-10-11T07:45:53.232Z,100466.66
2022-10-11T07:46:40.063Z,100464.88
2022-10-11T07:47:27.002Z,100467.00
2022-10-11T07:48:13.923Z,100469.91
2022-10-11T07:49:00.831Z,100474.22
2022-10-11T07:49:47.660Z,100477.41
2022-10-11T07:50:35.591Z,100473.25
2022-10-11T07:51:24.209Z,100477.91
2022-10-11T07:52:11.061Z,100473.97
2022-10-11T07:52:58.779Z,100477.56
2022-10-11T07:53:48.604Z,100477.56
2022-10-11T07:54:35.503Z,100470.94
2022-10-11T07:55:22.945Z,100472.66
2022-10-11T07:56:12.812Z,100473.75
2022-10-11T07:56:59.860Z,100471.47
2022-10-11T07:57:47.022Z,100467.28
2022-10-11T07:58:33.892Z,100469.19
2022-10-11T07:59:20.725Z,100470.72
2022-10-11T08:00:08.561Z,100473.28
2022-10-11T08:00:55.687Z,100468.50
2022-10-11T08:01:42.760Z,100464.75
2022-10-11T08:02:29.662Z,100465.88
2022-10-11T08:03:17.201Z,100464.63
2022-10-11T08:04:04.314Z,100469.62
2022-10-11T08:04:51.150Z,100470.06
2022-10-11T08:05:39.260Z,100477.87
2022-10-11T08:06:31.965Z,100467.16
2022-10-11T08:07:18.903Z,100468.03
2022-10-11T08:08:05.891Z,100469.53
2022-10-11T08:08:52.901Z,100464.75
2022-10-11T08:09:39.921Z,100466.88
2022-10-11T08:10:27.891Z,100470.22
2022-10-11T08:11:32.321Z,100469.41
2022-10-11T08:12:19.226Z,100469.84
2022-10-11T08:13:06.251Z,100468.41
2022-10-11T08:13:53.372Z,100468.84
2022-10-11T08:14:41.801Z,100473.66
2022-10-11T08:15:29.920Z,100467.16
2022-10-11T08:16:17.942Z,100465.69
2022-10-11T08:17:05.213Z,100473.66
2022-10-11T08:17:52.070Z,100467.37
2022-10-11T08:18:39.330Z,100474.47
2022-10-11T08:19:26.282Z,100472.34
2022-10-11T08:20:13.631Z,100469.56
2022-10-11T08:21:00.561Z,100475.03
2022-10-11T08:21:47.732Z,100472.94
2022-10-11T08:22:34.801Z,100475.91
2022-10-11T08:23:21.731Z,100473.41
2022-10-11T08:24:09.010Z,100475.09
2022-10-11T08:24:55.900Z,100478.44
2022-10-11T08:25:45.399Z,100469.16
2022-10-11T08:26:33.050Z,100470.38
2022-10-11T08:27:19.961Z,100471.16
2022-10-11T08:28:07.548Z,100470.91
2022-10-11T08:28:54.773Z,100468.81
2022-10-11T08:29:41.875Z,100469.44
2022-10-11T08:30:28.773Z,100476.97
2022-10-11T08:31:16.687Z,100477.31
2022-10-11T08:32:03.668Z,100473.12
2022-10-11T08:32:50.810Z,100475.75
2022-10-11T08:33:37.681Z,100478.50
2022-10-11T08:34:25.011Z,100479.00
2022-10-11T08:35:11.941Z,100476.16
2022-10-11T08:35:59.250Z,100470.72
2022-10-11T08:36:46.421Z,100477.00
2022-10-11T08:37:33.490Z,100474.63
2022-10-11T08:38:20.621Z,100474.22
2022-10-11T08:39:07.971Z,100470.22
2022-10-11T08:39:55.011Z,100481.22
2022-10-11T08:40:48.223Z,100473.22
2022-10-11T08:41:44.051Z,100471.94
2022-10-11T08:42:33.792Z,100478.81
2022-10-11T08:43:38.740Z,100475.44
2022-10-11T08:45:09.515Z,100474.81
2022-10-11T08:45:53.814Z,100478.81
2022-10-11T08:46:44.264Z,100477.63
2022-10-11T08:47:36.604Z,100476.59
2022-10-11T08:48:37.431Z,100480.59
2022-10-11T08:49:27.639Z,100479.75
2022-10-11T08:50:22.700Z,100481.72
2022-10-11T08:51:25.950Z,100477.09
2022-10-11T08:52:28.576Z,100485.91
2022-10-11T08:53:33.210Z,100481.06
2022-10-11T08:54:46.010Z,100480.66
2022-10-11T08:55:53.509Z,100480.50
2022-10-11T08:56:42.081Z,100486.38
2022-10-11T08:57:31.595Z,100480.84
2022-10-11T08:58:23.008Z,100484.87
2022-10-11T08:59:12.741Z,100484.50
2022-10-11T09:00:04.852Z,100492.50
2022-10-11T09:00:58.220Z,100482.44
2022-10-11T09:01:50.674Z,100486.19
2022-10-11T09:03:07.649Z,100488.28
2022-10-11T09:03:55.914Z,100483.84
2022-10-11T09:04:42.855Z,100482.16
2022-10-11T09:05:36.351Z,100491.88
2022-10-11T09:06:45.420Z,100489.97
2022-10-11T09:07:47.512Z,100488.09
2022-10-11T09:08:52.880Z,100485.13
2022-10-11T09:09:49.553Z,100480.94
2022-10-11T09:10:36.720Z,100484.75
2022-10-11T09:11:35.821Z,100483.69
2022-10-11T09:12:50.270Z,100491.94
2022-10-11T09:13:59.090Z,100485.94
2022-10-11T09:15:12.710Z,100484.91
2022-10-11T09:16:11.241Z,100488.94
2022-10-11T09:17:13.893Z,100491.44
2022-10-11T09:18:16.421Z,100481.13
2022-10-11T09:19:03.260Z,100485.31
2022-10-11T09:20:14.700Z,100486.09
2022-10-11T09:21:45.771Z,100484.16
2022-10-11T09:22:32.530Z,100490.59
2022-10-11T09:23:36.161Z,100484.25
2022-10-11T09:24:32.100Z,100487.97
2022-10-11T09:25:22.022Z,100488.13
2022-10-11T09:26:29.241Z,100489.53
2022-10-11T09:27:33.053Z,100489.69
2022-10-11T09:28:57.318Z,100487.28
2022-10-11T09:30:07.074Z,100489.50
2022-10-11T09:30:56.082Z,100493.47
2022-10-11T09:31:48.153Z,100480.34
2022-10-11T09:32:40.680Z,100487.19
2022-10-11T09:33:45.890Z,100485.34
2022-10-11T09:34:34.110Z,100495.00
2022-10-11T09:35:22.922Z,100493.34
2022-10-11T09:36:18.951Z,100489.56
2022-10-11T09:37:32.988Z,100491.03
2022-10-11T09:38:40.261Z,100490.59
2022-10-11T09:39:33.033Z,100500.38
2022-10-11T09:40:37.811Z,100494.34
2022-10-11T09:41:59.369Z,100493.56
2022-10-11T09:42:46.270Z,100495.56
2022-10-11T09:43:33.380Z,100499.75
2022-10-11T09:44:23.621Z,100498.66
2022-10-11T09:45:18.048Z,100498.72
2022-10-11T09:46:21.463Z,100493.12
2022-10-11T09:47:15.063Z,100496.38
2022-10-11T09:48:03.171Z,100488.25
2022-10-11T09:48:51.301Z,100493.69
2022-10-11T09:49:41.548Z,100501.06
2022-10-11T09:50:30.910Z,100499.81
2022-10-11T09:51:22.186Z,100500.28
2022-10-11T09:52:16.892Z,100490.38
2022-10-11T09:53:05.351Z,100495.44
2022-10-11T09:53:56.765Z,100501.66
2022-10-11T09:54:46.143Z,100484.44
2022-10-11T09:55:40.990Z,100482.84
2022-10-11T09:56:30.160Z,100485.81
2022-10-11T09:57:34.501Z,100490.00
2022-10-11T09:58:32.721Z,100495.31
2022-10-11T09:59:36.311Z,100487.34
2022-10-11T10:00:28.629Z,100484.06
2022-10-11T10:01:26.474Z,100491.41
2022-10-11T10:02:16.030Z,100497.16
2022-10-11T10:03:04.724Z,100489.09
2022-10-11T10:04:08.141Z,100499.34
2022-10-11T10:05:15.251Z,100507.06
2022-10-11T10:06:06.591Z,100499.88
2022-10-11T10:07:10.591Z,100498.37
2022-10-11T10:08:04.774Z,100504.81
2022-10-11T10:08:52.595Z,100506.69
2022-10-11T10:09:39.446Z,100505.84
2022-10-11T10:10:43.942Z,100500.59
2022-10-11T10:11:37.176Z,100499.88
2022-10-11T10:12:30.811Z,100496.53
2022-10-11T10:13:28.082Z,100501.22
2022-10-11T10:14:23.213Z,100495.59
2022-10-11T10:15:19.840Z,100499.34
2022-10-11T10:16:11.940Z,100501.75
2022-10-11T10:17:08.842Z,100499.69
2022-10-11T10:17:56.025Z,100497.78
2022-10-11T10:18:48.691Z,100497.91
2022-10-11T10:19:49.155Z,100497.78
2022-10-11T10:20:36.741Z,100496.34
2022-10-11T10:21:35.350Z,100494.75
2022-10-11T10:22:28.333Z,100494.56
2022-10-11T10:23:27.261Z,100493.69